sensor_id;sensor_type;location;lat;lon;timestamp;P1;durP1;ratioP1;P2;durP2;ratioP2
6529;SDS011;3298;42.688;23.366;2022-09-16T00:00:19;9.73;;;2.33;;
6529;SDS011;3298;42.688;23.366;2022-09-16T00:02:46;7.43;;;2.10;;
6529;SDS011;3298;42.688;23.366;2022-09-16T00:05:13;6.10;;;2.13;;
6529;SDS011;3298;42.688;23.366;2022-09-16T00:07:41;6.90;;;2.47;;
6529;SDS011;3298;42.688;23.366;2022-09-16T00:10:08;5.43;;;2.00;;
6529;SDS011;3298;42.688;23.366;2022-09-16T00:12:35;4.47;;;2.30;;
6529;SDS011;3298;42.688;23.366;2022-09-16T00:15:02;9.63;;;2.40;;
6529;SDS011;3298;42.688;23.366;2022-09-16T00:17:30;6.67;;;2.30;;
6529;SDS011;3298;42.688;23.366;2022-09-16T00:19:56;7.90;;;2.20;;
6529;SDS011;3298;42.688;23.366;2022-09-16T00:22:23;2.83;;;2.00;;
6529;SDS011;3298;42.688;23.366;2022-09-16T00:24:52;4.20;;;1.87;;
6529;SDS011;3298;42.688;23.366;2022-09-16T00:27:18;6.63;;;2.90;;
6529;SDS011;3298;42.688;23.366;2022-09-16T00:29:45;8.33;;;2.47;;
6529;SDS011;3298;42.688;23.366;2022-09-16T00:32:12;7.43;;;1.93;;
6529;SDS011;3298;42.688;23.366;2022-09-16T00:34:39;6.97;;;2.30;;
6529;SDS011;3298;42.688;23.366;2022-09-16T00:37:05;6.87;;;2.27;;
6529;SDS011;3298;42.688;23.366;2022-09-16T00:39:33;4.37;;;2.33;;
6529;SDS011;3298;42.688;23.366;2022-09-16T00:42:03;6.13;;;2.60;;
6529;SDS011;3298;42.688;23.366;2022-09-16T00:47:20;6.47;;;2.50;;
6529;SDS011;3298;42.688;23.366;2022-09-16T00:49:50;7.03;;;3.20;;
6529;SDS011;3298;42.688;23.366;2022-09-16T00:52:21;15.33;;;2.53;;
6529;SDS011;3298;42.688;23.366;2022-09-16T00:54:48;4.10;;;1.87;;
6529;SDS011;3298;42.688;23.366;2022-09-16T00:57:16;12.63;;;2.43;;
6529;SDS011;3298;42.688;23.366;2022-09-16T00:59:45;5.23;;;2.70;;
6529;SDS011;3298;42.688;23.366;2022-09-16T01:02:16;4.73;;;2.13;;
6529;SDS011;3298;42.688;23.366;2022-09-16T01:04:46;11.67;;;2.90;;
6529;SDS011;3298;42.688;23.366;2022-09-16T01:07:17;8.53;;;2.53;;
6529;SDS011;3298;42.688;23.366;2022-09-16T01:09:51;4.37;;;2.77;;
6529;SDS011;3298;42.688;23.366;2022-09-16T01:12:19;7.67;;;2.43;;
6529;SDS011;3298;42.688;23.366;2022-09-16T01:14:46;7.37;;;2.40;;
6529;SDS011;3298;42.688;23.366;2022-09-16T01:17:20;10.37;;;2.40;;
6529;SDS011;3298;42.688;23.366;2022-09-16T01:20:03;5.17;;;2.73;;
6529;SDS011;3298;42.688;23.366;2022-09-16T01:23:01;7.47;;;2.70;;
6529;SDS011;3298;42.688;23.366;2022-09-16T01:25:53;10.10;;;2.60;;
6529;SDS011;3298;42.688;23.366;2022-09-16T01:28:40;8.40;;;2.60;;
6529;SDS011;3298;42.688;23.366;2022-09-16T01:31:29;4.17;;;2.00;;
6529;SDS011;3298;42.688;23.366;2022-09-16T01:34:04;8.03;;;2.63;;
6529;SDS011;3298;42.688;23.366;2022-09-16T01:36:44;7.73;;;2.97;;
6529;SDS011;3298;42.688;23.366;2022-09-16T01:39:23;12.27;;;2.50;;
6529;SDS011;3298;42.688;23.366;2022-09-16T01:42:06;14.80;;;2.70;;
6529;SDS011;3298;42.688;23.366;2022-09-16T01:44:46;4.17;;;2.70;;
6529;SDS011;3298;42.688;23.366;2022-09-16T01:47:24;5.10;;;2.30;;
6529;SDS011;3298;42.688;23.366;2022-09-16T01:50:01;6.07;;;2.57;;
6529;SDS011;3298;42.688;23.366;2022-09-16T01:52:35;5.53;;;2.33;;
6529;SDS011;3298;42.688;23.366;2022-09-16T01:55:09;9.00;;;2.07;;
6529;SDS011;3298;42.688;23.366;2022-09-16T01:57:45;4.43;;;2.47;;
6529;SDS011;3298;42.688;23.366;2022-09-16T02:00:17;6.27;;;2.70;;
6529;SDS011;3298;42.688;23.366;2022-09-16T02:02:46;6.17;;;2.80;;
6529;SDS011;3298;42.688;23.366;2022-09-16T02:05:18;8.00;;;2.80;;
6529;SDS011;3298;42.688;23.366;2022-09-16T02:07:50;12.03;;;2.70;;
6529;SDS011;3298;42.688;23.366;2022-09-16T02:10:21;6.63;;;2.73;;
6529;SDS011;3298;42.688;23.366;2022-09-16T02:12:54;10.90;;;2.87;;
6529;SDS011;3298;42.688;23.366;2022-09-16T02:15:25;7.17;;;2.20;;
6529;SDS011;3298;42.688;23.366;2022-09-16T02:17:56;4.63;;;2.57;;
6529;SDS011;3298;42.688;23.366;2022-09-16T02:20:28;5.77;;;2.80;;
6529;SDS011;3298;42.688;23.366;2022-09-16T02:22:58;8.27;;;2.67;;
6529;SDS011;3298;42.688;23.366;2022-09-16T02:25:32;2.67;;;2.23;;
6529;SDS011;3298;42.688;23.366;2022-09-16T02:28:02;8.13;;;2.40;;
6529;SDS011;3298;42.688;23.366;2022-09-16T02:30:35;5.77;;;2.27;;
6529;SDS011;3298;42.688;23.366;2022-09-16T02:33:05;7.40;;;2.50;;
6529;SDS011;3298;42.688;23.366;2022-09-16T02:35:34;6.00;;;3.07;;
6529;SDS011;3298;42.688;23.366;2022-09-16T02:38:05;6.17;;;2.83;;
6529;SDS011;3298;42.688;23.366;2022-09-16T02:40:41;10.30;;;3.50;;
6529;SDS011;3298;42.688;23.366;2022-09-16T02:43:12;14.33;;;3.03;;
6529;SDS011;3298;42.688;23.366;2022-09-16T02:45:41;5.63;;;2.20;;
6529;SDS011;3298;42.688;23.366;2022-09-16T02:48:17;11.80;;;2.70;;
6529;SDS011;3298;42.688;23.366;2022-09-16T02:50:54;6.43;;;2.43;;
6529;SDS011;3298;42.688;23.366;2022-09-16T02:53:31;10.33;;;2.93;;
6529;SDS011;3298;42.688;23.366;2022-09-16T02:56:06;6.87;;;2.30;;
6529;SDS011;3298;42.688;23.366;2022-09-16T02:58:38;5.63;;;2.60;;
6529;SDS011;3298;42.688;23.366;2022-09-16T03:01:05;8.63;;;2.20;;
6529;SDS011;3298;42.688;23.366;2022-09-16T03:03:34;7.47;;;3.03;;
6529;SDS011;3298;42.688;23.366;2022-09-16T03:06:14;11.33;;;2.60;;
6529;SDS011;3298;42.688;23.366;2022-09-16T03:08:43;7.43;;;3.57;;
6529;SDS011;3298;42.688;23.366;2022-09-16T03:11:27;12.57;;;2.80;;
6529;SDS011;3298;42.688;23.366;2022-09-16T03:14:17;7.70;;;3.03;;
6529;SDS011;3298;42.688;23.366;2022-09-16T03:16:55;8.03;;;2.93;;
6529;SDS011;3298;42.688;23.366;2022-09-16T03:19:34;9.13;;;3.00;;
6529;SDS011;3298;42.688;23.366;2022-09-16T03:22:12;10.83;;;2.63;;
6529;SDS011;3298;42.688;23.366;2022-09-16T03:24:44;5.57;;;2.80;;
6529;SDS011;3298;42.688;23.366;2022-09-16T03:27:19;7.03;;;2.90;;
6529;SDS011;3298;42.688;23.366;2022-09-16T03:29:56;6.40;;;2.53;;
6529;SDS011;3298;42.688;23.366;2022-09-16T03:32:29;8.43;;;2.93;;
6529;SDS011;3298;42.688;23.366;2022-09-16T03:35:01;8.33;;;3.27;;
6529;SDS011;3298;42.688;23.366;2022-09-16T03:37:32;8.13;;;2.97;;
6529;SDS011;3298;42.688;23.366;2022-09-16T03:40:02;12.27;;;3.67;;
6529;SDS011;3298;42.688;23.366;2022-09-16T03:42:32;7.90;;;3.43;;
6529;SDS011;3298;42.688;23.366;2022-09-16T03:44:59;15.33;;;3.10;;
6529;SDS011;3298;42.688;23.366;2022-09-16T03:47:26;14.20;;;3.13;;
6529;SDS011;3298;42.688;23.366;2022-09-16T03:49:52;21.90;;;3.90;;
6529;SDS011;3298;42.688;23.366;2022-09-16T03:52:20;22.70;;;3.97;;
6529;SDS011;3298;42.688;23.366;2022-09-16T03:54:47;12.03;;;3.43;;
6529;SDS011;3298;42.688;23.366;2022-09-16T03:57:14;9.93;;;3.67;;
6529;SDS011;3298;42.688;23.366;2022-09-16T03:59:41;12.10;;;3.80;;
6529;SDS011;3298;42.688;23.366;2022-09-16T04:02:07;9.57;;;4.13;;
6529;SDS011;3298;42.688;23.366;2022-09-16T04:04:34;17.47;;;4.00;;
6529;SDS011;3298;42.688;23.366;2022-09-16T04:07:01;13.97;;;4.00;;
6529;SDS011;3298;42.688;23.366;2022-09-16T04:09:29;13.57;;;3.97;;
6529;SDS011;3298;42.688;23.366;2022-09-16T04:11:56;6.90;;;4.00;;
6529;SDS011;3298;42.688;23.366;2022-09-16T04:14:23;12.63;;;4.27;;
6529;SDS011;3298;42.688;23.366;2022-09-16T04:16:49;13.97;;;3.67;;
6529;SDS011;3298;42.688;23.366;2022-09-16T04:19:16;18.43;;;3.90;;
6529;SDS011;3298;42.688;23.366;2022-09-16T04:21:43;33.87;;;5.47;;
6529;SDS011;3298;42.688;23.366;2022-09-16T04:24:10;20.27;;;4.77;;
6529;SDS011;3298;42.688;23.366;2022-09-16T04:26:38;21.10;;;4.80;;
6529;SDS011;3298;42.688;23.366;2022-09-16T04:29:05;4.37;;;3.13;;
6529;SDS011;3298;42.688;23.366;2022-09-16T04:31:32;5.43;;;4.17;;
6529;SDS011;3298;42.688;23.366;2022-09-16T04:33:59;6.13;;;3.30;;
6529;SDS011;3298;42.688;23.366;2022-09-16T04:36:26;12.97;;;4.57;;
6529;SDS011;3298;42.688;23.366;2022-09-16T04:38:53;1.77;;;1.67;;
6529;SDS011;3298;42.688;23.366;2022-09-16T04:41:20;2.20;;;2.00;;
6529;SDS011;3298;42.688;23.366;2022-09-16T04:43:50;2.70;;;2.50;;
6529;SDS011;3298;42.688;23.366;2022-09-16T04:46:18;3.17;;;2.60;;
6529;SDS011;3298;42.688;23.366;2022-09-16T04:48:45;4.50;;;2.30;;
6529;SDS011;3298;42.688;23.366;2022-09-16T04:51:12;4.43;;;2.73;;
6529;SDS011;3298;42.688;23.366;2022-09-16T04:53:40;7.13;;;2.17;;
6529;SDS011;3298;42.688;23.366;2022-09-16T04:56:09;6.10;;;2.43;;
6529;SDS011;3298;42.688;23.366;2022-09-16T04:58:39;4.13;;;2.70;;
6529;SDS011;3298;42.688;23.366;2022-09-16T05:01:08;7.63;;;2.20;;
6529;SDS011;3298;42.688;23.366;2022-09-16T05:03:37;2.87;;;1.97;;
6529;SDS011;3298;42.688;23.366;2022-09-16T05:06:06;4.63;;;2.10;;
6529;SDS011;3298;42.688;23.366;2022-09-16T05:08:35;4.57;;;2.00;;
6529;SDS011;3298;42.688;23.366;2022-09-16T05:11:03;4.97;;;2.70;;
6529;SDS011;3298;42.688;23.366;2022-09-16T05:13:30;1.93;;;1.80;;
6529;SDS011;3298;42.688;23.366;2022-09-16T05:15:59;3.60;;;2.30;;
6529;SDS011;3298;42.688;23.366;2022-09-16T05:18:28;3.53;;;3.33;;
6529;SDS011;3298;42.688;23.366;2022-09-16T05:20:56;5.20;;;2.30;;
6529;SDS011;3298;42.688;23.366;2022-09-16T05:23:24;6.47;;;2.97;;
6529;SDS011;3298;42.688;23.366;2022-09-16T05:25:51;8.60;;;2.63;;
6529;SDS011;3298;42.688;23.366;2022-09-16T05:28:18;6.20;;;2.77;;
6529;SDS011;3298;42.688;23.366;2022-09-16T05:30:45;3.83;;;2.17;;
6529;SDS011;3298;42.688;23.366;2022-09-16T05:33:12;2.57;;;2.20;;
6529;SDS011;3298;42.688;23.366;2022-09-16T05:35:40;5.07;;;2.00;;
6529;SDS011;3298;42.688;23.366;2022-09-16T05:38:07;2.13;;;1.80;;
6529;SDS011;3298;42.688;23.366;2022-09-16T05:40:34;5.03;;;1.70;;
6529;SDS011;3298;42.688;23.366;2022-09-16T05:43:00;3.87;;;2.40;;
6529;SDS011;3298;42.688;23.366;2022-09-16T05:45:27;1.47;;;1.37;;
6529;SDS011;3298;42.688;23.366;2022-09-16T05:47:54;3.47;;;1.60;;
6529;SDS011;3298;42.688;23.366;2022-09-16T05:50:21;1.77;;;1.53;;
6529;SDS011;3298;42.688;23.366;2022-09-16T05:52:49;3.87;;;2.00;;
6529;SDS011;3298;42.688;23.366;2022-09-16T05:55:16;8.97;;;2.70;;
6529;SDS011;3298;42.688;23.366;2022-09-16T05:57:42;4.27;;;1.80;;
6529;SDS011;3298;42.688;23.366;2022-09-16T06:00:10;5.37;;;2.37;;
6529;SDS011;3298;42.688;23.366;2022-09-16T06:02:38;1.77;;;1.67;;
6529;SDS011;3298;42.688;23.366;2022-09-16T06:05:05;4.33;;;2.00;;
6529;SDS011;3298;42.688;23.366;2022-09-16T06:07:33;3.53;;;2.37;;
6529;SDS011;3298;42.688;23.366;2022-09-16T06:10:01;6.97;;;2.10;;
6529;SDS011;3298;42.688;23.366;2022-09-16T06:12:29;3.03;;;2.27;;
6529;SDS011;3298;42.688;23.366;2022-09-16T06:14:55;2.27;;;1.90;;
6529;SDS011;3298;42.688;23.366;2022-09-16T06:17:22;2.97;;;1.93;;
6529;SDS011;3298;42.688;23.366;2022-09-16T06:19:49;2.80;;;1.50;;
6529;SDS011;3298;42.688;23.366;2022-09-16T06:22:16;3.90;;;1.63;;
6529;SDS011;3298;42.688;23.366;2022-09-16T06:24:42;1.50;;;1.40;;
6529;SDS011;3298;42.688;23.366;2022-09-16T06:27:10;5.70;;;1.30;;
6529;SDS011;3298;42.688;23.366;2022-09-16T06:29:37;1.90;;;1.20;;
6529;SDS011;3298;42.688;23.366;2022-09-16T06:32:04;2.53;;;1.17;;
6529;SDS011;3298;42.688;23.366;2022-09-16T06:34:31;7.07;;;1.27;;
6529;SDS011;3298;42.688;23.366;2022-09-16T06:36:58;1.90;;;1.57;;
6529;SDS011;3298;42.688;23.366;2022-09-16T06:39:24;1.40;;;1.30;;
6529;SDS011;3298;42.688;23.366;2022-09-16T06:41:51;36.70;;;7.43;;
6529;SDS011;3298;42.688;23.366;2022-09-16T06:44:20;9.97;;;3.00;;
6529;SDS011;3298;42.688;23.366;2022-09-16T06:46:47;3.37;;;2.13;;
6529;SDS011;3298;42.688;23.366;2022-09-16T06:49:14;6.77;;;1.83;;
6529;SDS011;3298;42.688;23.366;2022-09-16T06:51:40;3.90;;;2.03;;
6529;SDS011;3298;42.688;23.366;2022-09-16T06:54:08;3.57;;;1.60;;
6529;SDS011;3298;42.688;23.366;2022-09-16T06:56:36;6.10;;;1.80;;
6529;SDS011;3298;42.688;23.366;2022-09-16T06:59:05;2.23;;;1.50;;
6529;SDS011;3298;42.688;23.366;2022-09-16T07:01:34;10.23;;;1.90;;
6529;SDS011;3298;42.688;23.366;2022-09-16T07:04:02;4.07;;;1.60;;
6529;SDS011;3298;42.688;23.366;2022-09-16T07:06:31;2.60;;;1.60;;
6529;SDS011;3298;42.688;23.366;2022-09-16T07:08:58;2.57;;;2.07;;
6529;SDS011;3298;42.688;23.366;2022-09-16T07:11:25;3.20;;;1.53;;
6529;SDS011;3298;42.688;23.366;2022-09-16T07:13:52;4.43;;;1.27;;
6529;SDS011;3298;42.688;23.366;2022-09-16T07:16:19;3.17;;;1.47;;
6529;SDS011;3298;42.688;23.366;2022-09-16T07:18:50;2.53;;;1.33;;
6529;SDS011;3298;42.688;23.366;2022-09-16T07:21:18;1.80;;;1.37;;
6529;SDS011;3298;42.688;23.366;2022-09-16T07:23:46;4.93;;;1.70;;
6529;SDS011;3298;42.688;23.366;2022-09-16T07:26:14;6.27;;;1.33;;
6529;SDS011;3298;42.688;23.366;2022-09-16T07:28:43;4.73;;;1.70;;
6529;SDS011;3298;42.688;23.366;2022-09-16T07:31:12;1.10;;;1.10;;
6529;SDS011;3298;42.688;23.366;2022-09-16T07:33:41;3.00;;;1.50;;
6529;SDS011;3298;42.688;23.366;2022-09-16T07:36:12;1.80;;;1.40;;
6529;SDS011;3298;42.688;23.366;2022-09-16T07:38:40;3.03;;;1.60;;
6529;SDS011;3298;42.688;23.366;2022-09-16T07:41:08;4.43;;;2.50;;
6529;SDS011;3298;42.688;23.366;2022-09-16T07:43:36;4.17;;;1.53;;
6529;SDS011;3298;42.688;23.366;2022-09-16T07:46:04;1.13;;;1.03;;
6529;SDS011;3298;42.688;23.366;2022-09-16T07:48:32;1.63;;;1.53;;
6529;SDS011;3298;42.688;23.366;2022-09-16T07:51:00;1.90;;;1.70;;
6529;SDS011;3298;42.688;23.366;2022-09-16T07:53:30;5.77;;;1.80;;
6529;SDS011;3298;42.688;23.366;2022-09-16T07:56:00;5.67;;;2.50;;
6529;SDS011;3298;42.688;23.366;2022-09-16T07:58:28;3.73;;;1.97;;
6529;SDS011;3298;42.688;23.366;2022-09-16T08:00:55;2.10;;;1.57;;
6529;SDS011;3298;42.688;23.366;2022-09-16T08:03:22;3.27;;;1.77;;
6529;SDS011;3298;42.688;23.366;2022-09-16T08:05:49;1.40;;;1.30;;
6529;SDS011;3298;42.688;23.366;2022-09-16T08:08:16;2.30;;;1.87;;
6529;SDS011;3298;42.688;23.366;2022-09-16T08:10:52;1.73;;;1.60;;
6529;SDS011;3298;42.688;23.366;2022-09-16T08:13:19;1.67;;;1.50;;
6529;SDS011;3298;42.688;23.366;2022-09-16T08:15:46;3.30;;;1.70;;
6529;SDS011;3298;42.688;23.366;2022-09-16T08:18:13;3.53;;;1.50;;
6529;SDS011;3298;42.688;23.366;2022-09-16T08:20:40;5.57;;;1.80;;
6529;SDS011;3298;42.688;23.366;2022-09-16T08:23:07;4.87;;;1.80;;
6529;SDS011;3298;42.688;23.366;2022-09-16T08:25:33;4.63;;;1.80;;
6529;SDS011;3298;42.688;23.366;2022-09-16T08:28:02;3.53;;;1.27;;
6529;SDS011;3298;42.688;23.366;2022-09-16T08:30:29;3.93;;;1.67;;
6529;SDS011;3298;42.688;23.366;2022-09-16T08:32:56;2.37;;;2.23;;
6529;SDS011;3298;42.688;23.366;2022-09-16T08:35:23;4.87;;;1.87;;
6529;SDS011;3298;42.688;23.366;2022-09-16T08:37:50;2.17;;;1.80;;
6529;SDS011;3298;42.688;23.366;2022-09-16T08:40:19;1.60;;;1.43;;
6529;SDS011;3298;42.688;23.366;2022-09-16T08:42:52;1.77;;;1.67;;
6529;SDS011;3298;42.688;23.366;2022-09-16T08:45:28;1.47;;;1.37;;
6529;SDS011;3298;42.688;23.366;2022-09-16T08:48:03;1.80;;;1.70;;
6529;SDS011;3298;42.688;23.366;2022-09-16T08:50:42;1.90;;;1.20;;
6529;SDS011;3298;42.688;23.366;2022-09-16T08:53:12;2.20;;;1.90;;
6529;SDS011;3298;42.688;23.366;2022-09-16T08:55:44;5.33;;;2.07;;
6529;SDS011;3298;42.688;23.366;2022-09-16T08:58:13;9.20;;;2.20;;
6529;SDS011;3298;42.688;23.366;2022-09-16T09:00:45;2.10;;;1.67;;
6529;SDS011;3298;42.688;23.366;2022-09-16T09:03:32;4.60;;;1.60;;
6529;SDS011;3298;42.688;23.366;2022-09-16T09:06:03;2.63;;;1.53;;
6529;SDS011;3298;42.688;23.366;2022-09-16T09:08:40;6.73;;;2.10;;
6529;SDS011;3298;42.688;23.366;2022-09-16T09:11:17;3.73;;;1.83;;
6529;SDS011;3298;42.688;23.366;2022-09-16T09:13:55;2.40;;;2.17;;
6529;SDS011;3298;42.688;23.366;2022-09-16T09:16:33;2.97;;;1.90;;
6529;SDS011;3298;42.688;23.366;2022-09-16T09:19:15;3.27;;;2.43;;
6529;SDS011;3298;42.688;23.366;2022-09-16T09:21:54;1.93;;;1.80;;
6529;SDS011;3298;42.688;23.366;2022-09-16T09:24:34;16.37;;;3.17;;
6529;SDS011;3298;42.688;23.366;2022-09-16T09:27:20;5.13;;;1.80;;
6529;SDS011;3298;42.688;23.366;2022-09-16T09:30:00;10.00;;;2.17;;
6529;SDS011;3298;42.688;23.366;2022-09-16T09:32:38;2.43;;;1.80;;
6529;SDS011;3298;42.688;23.366;2022-09-16T09:35:18;2.40;;;1.53;;
6529;SDS011;3298;42.688;23.366;2022-09-16T09:37:54;1.90;;;1.60;;
6529;SDS011;3298;42.688;23.366;2022-09-16T09:40:36;4.47;;;2.27;;
6529;SDS011;3298;42.688;23.366;2022-09-16T09:43:08;4.23;;;1.80;;
6529;SDS011;3298;42.688;23.366;2022-09-16T09:45:40;5.20;;;2.10;;
6529;SDS011;3298;42.688;23.366;2022-09-16T09:48:17;2.70;;;1.87;;
6529;SDS011;3298;42.688;23.366;2022-09-16T09:50:48;3.63;;;1.90;;
6529;SDS011;3298;42.688;23.366;2022-09-16T09:53:17;2.37;;;2.17;;
6529;SDS011;3298;42.688;23.366;2022-09-16T09:55:49;2.43;;;2.13;;
6529;SDS011;3298;42.688;23.366;2022-09-16T09:58:23;2.83;;;2.00;;
6529;SDS011;3298;42.688;23.366;2022-09-16T10:00:56;2.20;;;2.00;;
6529;SDS011;3298;42.688;23.366;2022-09-16T10:03:24;3.73;;;1.83;;
6529;SDS011;3298;42.688;23.366;2022-09-16T10:05:52;5.70;;;1.90;;
6529;SDS011;3298;42.688;23.366;2022-09-16T10:08:22;2.33;;;2.13;;
6529;SDS011;3298;42.688;23.366;2022-09-16T10:10:52;4.23;;;2.07;;
6529;SDS011;3298;42.688;23.366;2022-09-16T10:13:21;2.70;;;1.90;;
6529;SDS011;3298;42.688;23.366;2022-09-16T10:15:51;3.83;;;2.40;;
6529;SDS011;3298;42.688;23.366;2022-09-16T10:18:21;3.77;;;2.00;;
6529;SDS011;3298;42.688;23.366;2022-09-16T10:20:56;4.07;;;2.33;;
6529;SDS011;3298;42.688;23.366;2022-09-16T10:23:26;2.07;;;1.70;;
6529;SDS011;3298;42.688;23.366;2022-09-16T10:26:02;2.43;;;1.63;;
6529;SDS011;3298;42.688;23.366;2022-09-16T10:28:51;3.83;;;1.57;;
6529;SDS011;3298;42.688;23.366;2022-09-16T10:31:19;6.50;;;1.57;;
6529;SDS011;3298;42.688;23.366;2022-09-16T10:33:47;4.40;;;1.33;;
6529;SDS011;3298;42.688;23.366;2022-09-16T10:36:16;1.57;;;1.47;;
6529;SDS011;3298;42.688;23.366;2022-09-16T10:38:46;2.40;;;1.40;;
6529;SDS011;3298;42.688;23.366;2022-09-16T10:41:18;9.87;;;2.10;;
6529;SDS011;3298;42.688;23.366;2022-09-16T10:43:48;2.43;;;1.20;;
6529;SDS011;3298;42.688;23.366;2022-09-16T10:46:17;3.93;;;1.33;;
6529;SDS011;3298;42.688;23.366;2022-09-16T10:48:44;2.63;;;1.17;;
6529;SDS011;3298;42.688;23.366;2022-09-16T10:51:20;2.77;;;1.47;;
6529;SDS011;3298;42.688;23.366;2022-09-16T10:53:53;5.03;;;1.57;;
6529;SDS011;3298;42.688;23.366;2022-09-16T10:56:23;7.30;;;2.20;;
6529;SDS011;3298;42.688;23.366;2022-09-16T10:59:03;3.27;;;1.77;;
6529;SDS011;3298;42.688;23.366;2022-09-16T11:01:35;2.03;;;1.83;;
6529;SDS011;3298;42.688;23.366;2022-09-16T11:04:21;1.33;;;1.23;;
6529;SDS011;3298;42.688;23.366;2022-09-16T11:07:05;2.83;;;1.20;;
6529;SDS011;3298;42.688;23.366;2022-09-16T11:09:39;6.73;;;1.07;;
6529;SDS011;3298;42.688;23.366;2022-09-16T11:12:29;2.13;;;0.90;;
6529;SDS011;3298;42.688;23.366;2022-09-16T11:15:19;0.83;;;0.83;;
6529;SDS011;3298;42.688;23.366;2022-09-16T11:18:00;1.13;;;0.90;;
6529;SDS011;3298;42.688;23.366;2022-09-16T11:20:47;0.83;;;0.80;;
6529;SDS011;3298;42.688;23.366;2022-09-16T11:23:33;1.60;;;0.83;;
6529;SDS011;3298;42.688;23.366;2022-09-16T11:26:09;3.17;;;1.17;;
6529;SDS011;3298;42.688;23.366;2022-09-16T11:28:50;1.00;;;1.00;;
6529;SDS011;3298;42.688;23.366;2022-09-16T11:31:39;1.10;;;0.97;;
6529;SDS011;3298;42.688;23.366;2022-09-16T11:34:15;1.40;;;0.90;;
6529;SDS011;3298;42.688;23.366;2022-09-16T11:36:58;0.63;;;0.63;;
6529;SDS011;3298;42.688;23.366;2022-09-16T11:39:47;1.43;;;0.83;;
6529;SDS011;3298;42.688;23.366;2022-09-16T11:42:24;0.77;;;0.70;;
6529;SDS011;3298;42.688;23.366;2022-09-16T11:44:59;1.60;;;0.87;;
6529;SDS011;3298;42.688;23.366;2022-09-16T11:47:42;1.20;;;1.10;;
6529;SDS011;3298;42.688;23.366;2022-09-16T11:50:21;1.27;;;1.27;;
6529;SDS011;3298;42.688;23.366;2022-09-16T11:53:05;1.57;;;1.30;;
6529;SDS011;3298;42.688;23.366;2022-09-16T11:55:45;1.30;;;1.23;;
6529;SDS011;3298;42.688;23.366;2022-09-16T11:58:21;2.10;;;1.20;;
6529;SDS011;3298;42.688;23.366;2022-09-16T12:00:53;0.70;;;0.70;;
6529;SDS011;3298;42.688;23.366;2022-09-16T12:03:25;3.37;;;1.87;;
6529;SDS011;3298;42.688;23.366;2022-09-16T12:05:57;5.03;;;1.70;;
6529;SDS011;3298;42.688;23.366;2022-09-16T12:08:32;1.70;;;1.40;;
6529;SDS011;3298;42.688;23.366;2022-09-16T12:11:08;3.10;;;0.90;;
6529;SDS011;3298;42.688;23.366;2022-09-16T12:13:44;1.20;;;1.10;;
6529;SDS011;3298;42.688;23.366;2022-09-16T12:16:18;1.57;;;1.47;;
6529;SDS011;3298;42.688;23.366;2022-09-16T12:19:00;1.60;;;1.50;;
6529;SDS011;3298;42.688;23.366;2022-09-16T12:21:33;2.57;;;1.50;;
6529;SDS011;3298;42.688;23.366;2022-09-16T12:24:08;4.03;;;1.67;;
6529;SDS011;3298;42.688;23.366;2022-09-16T12:26:45;5.03;;;1.67;;
6529;SDS011;3298;42.688;23.366;2022-09-16T12:29:17;3.13;;;1.40;;
6529;SDS011;3298;42.688;23.366;2022-09-16T12:31:49;2.37;;;1.17;;
6529;SDS011;3298;42.688;23.366;2022-09-16T12:34:22;8.43;;;1.77;;
6529;SDS011;3298;42.688;23.366;2022-09-16T12:36:53;1.67;;;1.57;;
6529;SDS011;3298;42.688;23.366;2022-09-16T12:39:26;2.63;;;1.30;;
6529;SDS011;3298;42.688;23.366;2022-09-16T12:42:10;2.40;;;1.30;;
6529;SDS011;3298;42.688;23.366;2022-09-16T12:45:05;3.03;;;1.30;;
6529;SDS011;3298;42.688;23.366;2022-09-16T12:53:58;1.80;;;1.30;;
6529;SDS011;3298;42.688;23.366;2022-09-16T12:56:48;1.07;;;1.07;;
6529;SDS011;3298;42.688;23.366;2022-09-16T13:02:25;1.00;;;1.00;;
6529;SDS011;3298;42.688;23.366;2022-09-16T13:04:58;1.17;;;1.10;;
6529;SDS011;3298;42.688;23.366;2022-09-16T13:07:35;2.60;;;1.10;;
6529;SDS011;3298;42.688;23.366;2022-09-16T13:10:03;3.93;;;1.53;;
6529;SDS011;3298;42.688;23.366;2022-09-16T13:12:34;1.93;;;1.40;;
6529;SDS011;3298;42.688;23.366;2022-09-16T13:15:02;2.40;;;1.73;;
6529;SDS011;3298;42.688;23.366;2022-09-16T13:17:32;5.33;;;1.77;;
6529;SDS011;3298;42.688;23.366;2022-09-16T13:20:04;4.60;;;1.23;;
6529;SDS011;3298;42.688;23.366;2022-09-16T13:22:43;3.80;;;3.17;;
6529;SDS011;3298;42.688;23.366;2022-09-16T13:25:17;1.70;;;1.43;;
6529;SDS011;3298;42.688;23.366;2022-09-16T13:27:58;3.23;;;1.73;;
6529;SDS011;3298;42.688;23.366;2022-09-16T13:30:30;2.70;;;1.40;;
6529;SDS011;3298;42.688;23.366;2022-09-16T13:33:00;2.43;;;1.73;;
6529;SDS011;3298;42.688;23.366;2022-09-16T13:35:45;3.43;;;1.50;;
6529;SDS011;3298;42.688;23.366;2022-09-16T13:38:21;2.27;;;1.90;;
6529;SDS011;3298;42.688;23.366;2022-09-16T13:40:55;4.60;;;1.97;;
6529;SDS011;3298;42.688;23.366;2022-09-16T13:43:36;3.17;;;1.60;;
6529;SDS011;3298;42.688;23.366;2022-09-16T13:46:25;2.50;;;1.60;;
6529;SDS011;3298;42.688;23.366;2022-09-16T13:48:54;1.40;;;1.30;;
6529;SDS011;3298;42.688;23.366;2022-09-16T13:51:24;3.20;;;1.57;;
6529;SDS011;3298;42.688;23.366;2022-09-16T13:53:51;2.03;;;1.70;;
6529;SDS011;3298;42.688;23.366;2022-09-16T13:59:21;3.07;;;1.23;;
6529;SDS011;3298;42.688;23.366;2022-09-16T14:01:59;1.90;;;1.37;;
6529;SDS011;3298;42.688;23.366;2022-09-16T14:04:47;2.53;;;1.90;;
6529;SDS011;3298;42.688;23.366;2022-09-16T14:07:31;1.50;;;1.40;;
6529;SDS011;3298;42.688;23.366;2022-09-16T14:10:08;1.73;;;1.63;;
6529;SDS011;3298;42.688;23.366;2022-09-16T14:12:43;1.30;;;1.30;;
6529;SDS011;3298;42.688;23.366;2022-09-16T14:15:22;1.00;;;1.00;;
6529;SDS011;3298;42.688;23.366;2022-09-16T14:17:50;1.33;;;1.23;;
6529;SDS011;3298;42.688;23.366;2022-09-16T14:20:23;1.73;;;1.30;;
6529;SDS011;3298;42.688;23.366;2022-09-16T14:22:59;1.43;;;1.43;;
6529;SDS011;3298;42.688;23.366;2022-09-16T14:25:27;1.70;;;1.60;;
6529;SDS011;3298;42.688;23.366;2022-09-16T14:28:06;1.80;;;1.70;;
6529;SDS011;3298;42.688;23.366;2022-09-16T14:30:47;1.83;;;1.73;;
6529;SDS011;3298;42.688;23.366;2022-09-16T14:33:16;1.70;;;1.60;;
6529;SDS011;3298;42.688;23.366;2022-09-16T14:35:48;2.53;;;2.30;;
6529;SDS011;3298;42.688;23.366;2022-09-16T14:38:19;5.40;;;2.20;;
6529;SDS011;3298;42.688;23.366;2022-09-16T14:40:48;4.97;;;1.83;;
6529;SDS011;3298;42.688;23.366;2022-09-16T14:43:15;2.73;;;1.90;;
6529;SDS011;3298;42.688;23.366;2022-09-16T14:45:47;1.70;;;1.60;;
6529;SDS011;3298;42.688;23.366;2022-09-16T14:48:26;2.37;;;1.73;;
6529;SDS011;3298;42.688;23.366;2022-09-16T14:50:56;4.47;;;1.97;;
6529;SDS011;3298;42.688;23.366;2022-09-16T14:53:27;4.30;;;1.67;;
6529;SDS011;3298;42.688;23.366;2022-09-16T14:55:55;1.73;;;1.63;;
6529;SDS011;3298;42.688;23.366;2022-09-16T14:58:23;1.90;;;1.80;;
6529;SDS011;3298;42.688;23.366;2022-09-16T15:00:55;2.10;;;2.00;;
6529;SDS011;3298;42.688;23.366;2022-09-16T15:03:26;2.03;;;1.90;;
6529;SDS011;3298;42.688;23.366;2022-09-16T15:05:57;2.00;;;1.90;;
6529;SDS011;3298;42.688;23.366;2022-09-16T15:08:30;2.33;;;1.33;;
6529;SDS011;3298;42.688;23.366;2022-09-16T15:11:01;3.83;;;1.70;;
6529;SDS011;3298;42.688;23.366;2022-09-16T15:13:33;20.50;;;5.23;;
6529;SDS011;3298;42.688;23.366;2022-09-16T15:16:07;2.63;;;1.83;;
6529;SDS011;3298;42.688;23.366;2022-09-16T15:18:36;2.37;;;1.60;;
6529;SDS011;3298;42.688;23.366;2022-09-16T15:21:05;2.50;;;1.70;;
6529;SDS011;3298;42.688;23.366;2022-09-16T15:23:36;2.73;;;1.73;;
6529;SDS011;3298;42.688;23.366;2022-09-16T15:26:11;4.50;;;1.93;;
6529;SDS011;3298;42.688;23.366;2022-09-16T15:28:56;3.00;;;2.20;;
6529;SDS011;3298;42.688;23.366;2022-09-16T15:31:27;1.90;;;1.80;;
6529;SDS011;3298;42.688;23.366;2022-09-16T15:33:57;2.13;;;1.43;;
6529;SDS011;3298;42.688;23.366;2022-09-16T15:36:32;2.50;;;1.60;;
6529;SDS011;3298;42.688;23.366;2022-09-16T15:39:01;1.70;;;1.60;;
6529;SDS011;3298;42.688;23.366;2022-09-16T15:41:28;1.90;;;1.33;;
6529;SDS011;3298;42.688;23.366;2022-09-16T15:43:56;1.67;;;1.30;;